Time,TemperatureF,DewpointF,PressureIn,WindDirection,WindDirectionDegrees,WindSpeedMPH,WindSpeedGustMPH,Humidity,HourlyPrecipIn,Conditions,Clouds,dailyrainin,SoftwareType,DateUTC
2013-02-25 00:11:00,29.0,24.0,-100.00,East,79,2.0,6.0,80,0.00,,,0.00,,2013-02-25 07:11:00,
2013-02-25 00:21:00,29.0,24.0,-100.00,East,79,2.0,6.0,80,0.00,,,0.00,,2013-02-25 07:21:00,
2013-02-25 00:32:00,29.0,24.0,-100.00,East,79,2.0,6.0,80,0.00,,,0.00,,2013-02-25 07:32:00,
2013-02-25 00:41:00,29.0,24.0,-100.00,East,79,2.0,6.0,80,0.00,,,0.00,,2013-02-25 07:41:00,
2013-02-25 00:51:00,29.0,24.0,-100.00,East,79,2.0,6.0,80,0.00,,,0.00,,2013-02-25 07:51:00,
2013-02-25 01:21:00,29.0,19.0,-100.00,North,354,2.0,9.0,67,0.00,,,0.00,,2013-02-25 08:21:00,
2013-02-25 01:32:00,29.0,19.0,-100.00,North,354,2.0,9.0,67,0.00,,,0.00,,2013-02-25 08:32:00,
2013-02-25 01:41:00,29.0,19.0,-100.00,North,354,2.0,9.0,67,0.00,,,0.00,,2013-02-25 08:41:00,
2013-02-25 01:52:00,29.0,19.0,-100.00,North,354,2.0,9.0,67,0.00,,,0.00,,2013-02-25 08:52:00,
2013-02-25 02:21:00,30.0,13.0,-100.00,NNW,343,2.0,8.0,49,0.00,,,0.00,,2013-02-25 09:21:00,
2013-02-25 02:32:00,30.0,13.0,-100.00,NNW,343,2.0,8.0,49,0.00,,,0.00,,2013-02-25 09:32:00,
2013-02-25 02:42:00,30.0,13.0,-100.00,NNW,343,2.0,8.0,49,0.00,,,0.00,,2013-02-25 09:42:00,
2013-02-25 02:51:00,30.0,13.0,-100.00,NNW,343,2.0,8.0,49,0.00,,,0.00,,2013-02-25 09:51:00,
2013-02-25 03:21:00,31.0,12.0,-100.00,NNW,330,3.0,12.0,45,0.00,,,0.00,,2013-02-25 10:21:00,
2013-02-25 03:32:00,31.0,12.0,-100.00,NNW,330,3.0,12.0,45,0.00,,,0.00,,2013-02-25 10:32:00,
2013-02-25 03:42:00,31.0,12.0,-100.00,NNW,330,3.0,12.0,45,0.00,,,0.00,,2013-02-25 10:42:00,
2013-02-25 03:52:00,31.0,12.0,-100.00,NNW,330,3.0,12.0,45,0.00,,,0.00,,2013-02-25 10:52:00,
2013-02-25 04:11:00,28.0,11.0,-100.00,NE,38,4.0,14.0,49,0.00,,,0.00,,2013-02-25 11:11:00,
2013-02-25 04:21:00,28.0,11.0,-100.00,NE,38,4.0,14.0,49,0.00,,,0.00,,2013-02-25 11:21:00,
2013-02-25 04:32:00,28.0,11.0,-100.00,NE,38,4.0,14.0,49,0.00,,,0.00,,2013-02-25 11:32:00,
2013-02-25 04:42:00,28.0,11.0,-100.00,NE,38,4.0,14.0,49,0.00,,,0.00,,2013-02-25 11:42:00,
2013-02-25 04:52:00,28.0,11.0,-100.00,NE,38,4.0,14.0,49,0.00,,,0.00,,2013-02-25 11:52:00,
2013-02-25 04:53:00,25.0,11.0,-100.00,NE,40,2.0,8.0,54,0.00,,,0.00,,2013-02-25 11:53:00,
2013-02-25 05:11:00,25.0,11.0,-100.00,NE,40,2.0,8.0,54,0.00,,,0.00,,2013-02-25 12:11:00,
2013-02-25 05:21:00,25.0,11.0,-100.00,NE,40,2.0,8.0,54,0.00,,,0.00,,2013-02-25 12:21:00,
2013-02-25 05:32:00,25.0,11.0,-100.00,NE,40,2.0,8.0,54,0.00,,,0.00,,2013-02-25 12:32:00,
2013-02-25 05:42:00,25.0,11.0,-100.00,NE,40,2.0,8.0,54,0.00,,,0.00,,2013-02-25 12:42:00,
2013-02-25 06:12:00,24.0,10.0,-100.00,North,10,4.0,19.0,54,0.00,,,0.00,,2013-02-25 13:12:00,
2013-02-25 06:22:00,24.0,10.0,-100.00,North,10,4.0,19.0,54,0.00,,,0.00,,2013-02-25 13:22:00,
2013-02-25 06:32:00,24.0,10.0,-100.00,North,10,4.0,19.0,54,0.00,,,0.00,,2013-02-25 13:32:00,
2013-02-25 06:42:00,24.0,10.0,-100.00,North,10,4.0,19.0,54,0.00,,,0.00,,2013-02-25 13:42:00,
2013-02-25 06:52:00,24.0,10.0,-100.00,North,10,4.0,19.0,54,0.00,,,0.00,,2013-02-25 13:52:00,
2013-02-25 07:17:00,25.0,13.0,-100.00,NE,37,2.0,8.0,60,0.00,,,0.00,,2013-02-25 14:17:00,
2013-02-25 07:32:00,25.0,13.0,-100.00,NE,37,2.0,8.0,60,0.00,,,0.00,,2013-02-25 14:32:00,
2013-02-25 07:42:00,25.0,13.0,-100.00,NE,37,2.0,8.0,60,0.00,,,0.00,,2013-02-25 14:42:00,
2013-02-25 07:52:00,25.0,13.0,-100.00,NE,37,2.0,8.0,60,0.00,,,0.00,,2013-02-25 14:52:00,
2013-02-25 08:11:00,29.0,14.0,-100.00,North,9,3.0,9.0,52,0.00,,,0.00,,2013-02-25 15:11:00,
2013-02-25 08:22:00,29.0,14.0,-100.00,North,9,3.0,9.0,52,0.00,,,0.00,,2013-02-25 15:22:00,
2013-02-25 08:32:00,29.0,14.0,-100.00,North,9,3.0,9.0,52,0.00,,,0.00,,2013-02-25 15:32:00,
2013-02-25 08:41:00,29.0,14.0,-100.00,North,9,3.0,9.0,52,0.00,,,0.00,,2013-02-25 15:41:00,
2013-02-25 08:51:00,29.0,14.0,-100.00,North,9,3.0,9.0,52,0.00,,,0.00,,2013-02-25 15:51:00,
2013-02-25 09:21:00,33.0,12.0,-100.00,NW,310,7.0,16.0,42,0.00,,,0.00,,2013-02-25 16:21:00,
2013-02-25 09:32:00,33.0,12.0,-100.00,NW,310,7.0,16.0,42,0.00,,,0.00,,2013-02-25 16:32:00,
2013-02-25 09:42:00,33.0,12.0,-100.00,NW,310,7.0,16.0,42,0.00,,,0.00,,2013-02-25 16:42:00,
2013-02-25 09:51:00,33.0,12.0,-100.00,NW,310,7.0,16.0,42,0.00,,,0.00,,2013-02-25 16:51:00,
2013-02-25 10:21:00,37.0,11.0,-100.00,NW,311,9.0,19.0,34,0.00,,,0.00,,2013-02-25 17:21:00,
2013-02-25 10:32:00,37.0,11.0,-100.00,NW,311,9.0,19.0,34,0.00,,,0.00,,2013-02-25 17:32:00,
2013-02-25 10:41:00,37.0,11.0,-100.00,NW,311,9.0,19.0,34,0.00,,,0.00,,2013-02-25 17:41:00,
2013-02-25 10:52:00,37.0,11.0,-100.00,NW,311,9.0,19.0,34,0.00,,,0.00,,2013-02-25 17:52:00,
2013-02-25 11:12:00,40.0,10.0,-100.00,NW,326,7.0,18.0,28,0.00,,,0.00,,2013-02-25 18:12:00,
2013-02-25 11:21:00,40.0,10.0,-100.00,NW,326,7.0,18.0,28,0.00,,,0.00,,2013-02-25 18:21:00,
2013-02-25 11:32:00,40.0,10.0,-100.00,NW,326,7.0,18.0,28,0.00,,,0.00,,2013-02-25 18:32:00,
2013-02-25 11:42:00,40.0,10.0,-100.00,NW,326,7.0,18.0,28,0.00,,,0.00,,2013-02-25 18:42:00,
2013-02-25 11:51:00,40.0,10.0,-100.00,NW,326,7.0,18.0,28,0.00,,,0.00,,2013-02-25 18:51:00,
2013-02-25 12:11:00,45.0,9.0,-100.00,NW,323,7.0,17.0,23,0.00,,,0.00,,2013-02-25 19:11:00,
2013-02-25 12:21:00,45.0,9.0,-100.00,NW,323,7.0,17.0,23,0.00,,,0.00,,2013-02-25 19:21:00,
2013-02-25 12:32:00,45.0,9.0,-100.00,NW,323,7.0,17.0,23,0.00,,,0.00,,2013-02-25 19:32:00,
2013-02-25 12:42:00,45.0,9.0,-100.00,NW,323,7.0,17.0,23,0.00,,,0.00,,2013-02-25 19:42:00,
2013-02-25 12:52:00,45.0,9.0,-100.00,NW,323,7.0,17.0,23,0.00,,,0.00,,2013-02-25 19:52:00,
2013-02-25 13:11:00,47.0,6.0,-100.00,NW,307,9.0,19.0,18,0.00,,,0.00,,2013-02-25 20:11:00,
2013-02-25 13:21:00,47.0,6.0,-100.00,NW,307,9.0,19.0,18,0.00,,,0.00,,2013-02-25 20:21:00,
2013-02-25 13:32:00,47.0,6.0,-100.00,NW,307,9.0,19.0,18,0.00,,,0.00,,2013-02-25 20:32:00,
2013-02-25 13:42:00,47.0,6.0,-100.00,NW,307,9.0,19.0,18,0.00,,,0.00,,2013-02-25 20:42:00,
2013-02-25 13:52:00,47.0,6.0,-100.00,NW,307,9.0,19.0,18,0.00,,,0.00,,2013-02-25 20:52:00,
2013-02-25 14:11:00,48.0,1.0,-100.00,NW,308,10.0,20.0,14,0.00,,,0.00,,2013-02-25 21:11:00,
2013-02-25 14:21:00,48.0,1.0,-100.00,NW,308,10.0,20.0,14,0.00,,,0.00,,2013-02-25 21:21:00,
2013-02-25 14:32:00,48.0,1.0,-100.00,NW,308,10.0,20.0,14,0.00,,,0.00,,2013-02-25 21:32:00,
2013-02-25 14:42:00,48.0,1.0,-100.00,NW,308,10.0,20.0,14,0.00,,,0.00,,2013-02-25 21:42:00,
2013-02-25 14:51:00,48.0,1.0,-100.00,NW,308,10.0,20.0,14,0.00,,,0.00,,2013-02-25 21:51:00,
2013-02-25 15:11:00,50.0,-1.0,-100.00,NW,305,11.0,24.0,12,0.00,,,0.00,,2013-02-25 22:11:00,
2013-02-25 15:21:00,50.0,-1.0,-100.00,NW,305,11.0,24.0,12,0.00,,,0.00,,2013-02-25 22:21:00,
2013-02-25 15:32:00,50.0,-1.0,-100.00,NW,305,11.0,24.0,12,0.00,,,0.00,,2013-02-25 22:32:00,
2013-02-25 15:42:00,50.0,-1.0,-100.00,NW,305,11.0,24.0,12,0.00,,,0.00,,2013-02-25 22:42:00,
2013-02-25 15:51:00,50.0,-1.0,-100.00,NW,305,11.0,24.0,12,0.00,,,0.00,,2013-02-25 22:51:00,
2013-02-25 16:11:00,50.0,1.0,-100.00,WNW,288,11.0,23.0,13,0.00,,,0.00,,2013-02-25 23:11:00,
2013-02-25 16:22:00,50.0,1.0,-100.00,WNW,288,11.0,23.0,13,0.00,,,0.00,,2013-02-25 23:22:00,
2013-02-25 16:32:00,50.0,1.0,-100.00,WNW,288,11.0,23.0,13,0.00,,,0.00,,2013-02-25 23:32:00,
2013-02-25 16:42:00,50.0,1.0,-100.00,WNW,288,11.0,23.0,13,0.00,,,0.00,,2013-02-25 23:42:00,
2013-02-25 16:52:00,50.0,1.0,-100.00,WNW,288,11.0,23.0,13,0.00,,,0.00,,2013-02-25 23:52:00,
2013-02-25 17:12:00,49.0,-1.0,-100.00,WNW,298,9.0,21.0,12,0.00,,,0.00,,2013-02-26 00:12:00,
2013-02-25 17:22:00,49.0,-1.0,-100.00,WNW,298,9.0,21.0,12,0.00,,,0.00,,2013-02-26 00:22:00,
2013-02-25 17:32:00,49.0,-1.0,-100.00,WNW,298,9.0,21.0,12,0.00,,,0.00,,2013-02-26 00:32:00,
2013-02-25 17:42:00,49.0,-1.0,-100.00,WNW,298,9.0,21.0,12,0.00,,,0.00,,2013-02-26 00:42:00,
2013-02-25 17:51:00,49.0,-1.0,-100.00,WNW,298,9.0,21.0,12,0.00,,,0.00,,2013-02-26 00:51:00,
2013-02-25 18:11:00,46.0,-4.0,-100.00,WNW,291,9.0,19.0,12,0.00,,,0.00,,2013-02-26 01:11:00,
2013-02-25 18:21:00,46.0,-4.0,-100.00,WNW,291,9.0,19.0,12,0.00,,,0.00,,2013-02-26 01:21:00,
2013-02-25 18:32:00,46.0,-4.0,-100.00,WNW,291,9.0,19.0,12,0.00,,,0.00,,2013-02-26 01:32:00,
2013-02-25 18:41:00,46.0,-4.0,-100.00,WNW,291,9.0,19.0,12,0.00,,,0.00,,2013-02-26 01:41:00,
2013-02-25 18:51:00,46.0,-4.0,-100.00,WNW,291,9.0,19.0,12,0.00,,,0.00,,2013-02-26 01:51:00,
2013-02-25 19:11:00,42.0,-4.0,-100.00,NW,310,5.0,12.0,14,0.00,,,0.00,,2013-02-26 02:11:00,
2013-02-25 19:21:00,42.0,-4.0,-100.00,NW,310,5.0,12.0,14,0.00,,,0.00,,2013-02-26 02:21:00,
2013-02-25 19:32:00,42.0,-4.0,-100.00,NW,310,5.0,12.0,14,0.00,,,0.00,,2013-02-26 02:32:00,
2013-02-25 19:42:00,42.0,-4.0,-100.00,NW,310,5.0,12.0,14,0.00,,,0.00,,2013-02-26 02:42:00,
2013-02-25 19:52:00,42.0,-4.0,-100.00,NW,310,5.0,12.0,14,0.00,,,0.00,,2013-02-26 02:52:00,
2013-02-25 20:11:00,30.0,-8.0,-100.00,WSW,256,2.0,4.0,18,0.00,,,0.00,,2013-02-26 03:11:00,
2013-02-25 20:21:00,30.0,-8.0,-100.00,WSW,256,2.0,4.0,18,0.00,,,0.00,,2013-02-26 03:21:00,
2013-02-25 21:22:00,37.0,1.0,-100.00,NW,315,4.0,11.0,21,-99.99,,,0.00,,2013-02-26 04:22:00,
2013-02-25 21:32:00,37.0,1.0,-100.00,NW,315,4.0,11.0,21,-99.99,,,0.00,,2013-02-26 04:32:00,
2013-02-25 21:42:00,37.0,1.0,-100.00,NW,315,4.0,11.0,21,-99.99,,,0.00,,2013-02-26 04:42:00,
2013-02-25 21:51:00,37.0,1.0,-100.00,NW,315,4.0,11.0,21,-99.99,,,0.00,,2013-02-26 04:51:00,
2013-02-25 22:12:00,30.0,-2.0,-100.00,West,273,3.0,8.0,24,0.00,,,0.00,,2013-02-26 05:12:00,
2013-02-25 22:22:00,30.0,-2.0,-100.00,West,273,3.0,8.0,24,0.00,,,0.00,,2013-02-26 05:22:00,
2013-02-25 23:21:00,25.0,-2.0,-100.00,South,178,3.0,5.0,30,0.00,,,0.00,,2013-02-26 06:21:00,